sensor_id;sensor_type;location;lat;lon;timestamp;P1;durP1;ratioP1;P2;durP2;ratioP2
18905;SDS011;9585;51.018;4.282;2023-12-29T00:01:39;8.57;;;1.60;;
18905;SDS011;9585;51.018;4.282;2023-12-29T00:04:09;7.53;;;1.60;;
18905;SDS011;9585;51.018;4.282;2023-12-29T00:06:37;12.13;;;1.95;;
18905;SDS011;9585;51.018;4.282;2023-12-29T00:09:05;11.30;;;2.20;;
18905;SDS011;9585;51.018;4.282;2023-12-29T00:11:33;8.23;;;1.77;;
18905;SDS011;9585;51.018;4.282;2023-12-29T00:14:01;8.65;;;1.95;;
18905;SDS011;9585;51.018;4.282;2023-12-29T00:16:28;3.80;;;1.48;;
18905;SDS011;9585;51.018;4.282;2023-12-29T00:18:56;9.68;;;1.60;;
18905;SDS011;9585;51.018;4.282;2023-12-29T00:21:26;8.35;;;1.80;;
18905;SDS011;9585;51.018;4.282;2023-12-29T00:23:53;8.23;;;1.60;;
18905;SDS011;9585;51.018;4.282;2023-12-29T00:26:22;7.72;;;2.05;;
18905;SDS011;9585;51.018;4.282;2023-12-29T00:28:50;9.43;;;2.28;;
18905;SDS011;9585;51.018;4.282;2023-12-29T00:31:18;7.03;;;1.65;;
18905;SDS011;9585;51.018;4.282;2023-12-29T00:33:45;5.82;;;1.58;;
18905;SDS011;9585;51.018;4.282;2023-12-29T00:36:14;8.15;;;1.65;;
18905;SDS011;9585;51.018;4.282;2023-12-29T00:38:44;8.00;;;1.75;;
18905;SDS011;9585;51.018;4.282;2023-12-29T00:41:11;9.10;;;1.92;;
18905;SDS011;9585;51.018;4.282;2023-12-29T00:43:39;6.30;;;2.13;;
18905;SDS011;9585;51.018;4.282;2023-12-29T00:46:07;7.90;;;1.60;;
18905;SDS011;9585;51.018;4.282;2023-12-29T00:48:35;5.60;;;1.52;;
18905;SDS011;9585;51.018;4.282;2023-12-29T00:51:03;8.48;;;1.90;;
18905;SDS011;9585;51.018;4.282;2023-12-29T00:53:31;7.90;;;1.90;;
18905;SDS011;9585;51.018;4.282;2023-12-29T00:56:00;6.18;;;1.70;;
18905;SDS011;9585;51.018;4.282;2023-12-29T00:58:28;8.80;;;1.83;;
18905;SDS011;9585;51.018;4.282;2023-12-29T01:00:56;7.20;;;1.67;;
18905;SDS011;9585;51.018;4.282;2023-12-29T01:03:24;6.32;;;1.75;;
18905;SDS011;9585;51.018;4.282;2023-12-29T01:05:51;7.35;;;1.90;;
18905;SDS011;9585;51.018;4.282;2023-12-29T01:08:19;9.77;;;1.55;;
18905;SDS011;9585;51.018;4.282;2023-12-29T01:10:47;10.85;;;1.98;;
18905;SDS011;9585;51.018;4.282;2023-12-29T01:13:16;6.53;;;1.73;;
18905;SDS011;9585;51.018;4.282;2023-12-29T01:15:44;6.70;;;1.70;;
18905;SDS011;9585;51.018;4.282;2023-12-29T01:18:11;6.13;;;1.70;;
18905;SDS011;9585;51.018;4.282;2023-12-29T01:20:39;8.65;;;1.77;;
18905;SDS011;9585;51.018;4.282;2023-12-29T01:23:07;7.35;;;1.70;;
18905;SDS011;9585;51.018;4.282;2023-12-29T01:25:35;8.23;;;1.65;;
18905;SDS011;9585;51.018;4.282;2023-12-29T01:28:03;8.00;;;2.40;;
18905;SDS011;9585;51.018;4.282;2023-12-29T01:30:33;6.28;;;1.75;;
18905;SDS011;9585;51.018;4.282;2023-12-29T01:33:01;9.00;;;1.58;;
18905;SDS011;9585;51.018;4.282;2023-12-29T01:35:29;6.88;;;1.83;;
18905;SDS011;9585;51.018;4.282;2023-12-29T01:37:56;7.38;;;1.50;;
18905;SDS011;9585;51.018;4.282;2023-12-29T01:40:24;8.75;;;1.83;;
18905;SDS011;9585;51.018;4.282;2023-12-29T01:42:52;7.28;;;1.60;;
18905;SDS011;9585;51.018;4.282;2023-12-29T01:45:20;9.85;;;2.67;;
18905;SDS011;9585;51.018;4.282;2023-12-29T01:47:51;9.25;;;2.22;;
18905;SDS011;9585;51.018;4.282;2023-12-29T01:50:21;6.25;;;1.67;;
18905;SDS011;9585;51.018;4.282;2023-12-29T01:52:52;6.80;;;1.90;;
18905;SDS011;9585;51.018;4.282;2023-12-29T01:55:22;7.50;;;1.52;;
18905;SDS011;9585;51.018;4.282;2023-12-29T01:57:53;7.65;;;1.58;;
18905;SDS011;9585;51.018;4.282;2023-12-29T02:00:22;7.75;;;1.92;;
18905;SDS011;9585;51.018;4.282;2023-12-29T02:02:52;6.45;;;1.30;;
18905;SDS011;9585;51.018;4.282;2023-12-29T02:05:20;8.15;;;2.03;;
18905;SDS011;9585;51.018;4.282;2023-12-29T02:07:51;6.80;;;1.83;;
18905;SDS011;9585;51.018;4.282;2023-12-29T02:10:19;10.00;;;1.92;;
18905;SDS011;9585;51.018;4.282;2023-12-29T02:12:50;7.28;;;1.90;;
18905;SDS011;9585;51.018;4.282;2023-12-29T02:15:22;5.63;;;1.70;;
18905;SDS011;9585;51.018;4.282;2023-12-29T02:17:52;6.45;;;1.80;;
18905;SDS011;9585;51.018;4.282;2023-12-29T02:20:28;8.57;;;1.85;;
18905;SDS011;9585;51.018;4.282;2023-12-29T02:22:57;6.80;;;1.60;;
18905;SDS011;9585;51.018;4.282;2023-12-29T02:25:25;9.25;;;1.80;;
18905;SDS011;9585;51.018;4.282;2023-12-29T02:27:56;6.18;;;1.52;;
18905;SDS011;9585;51.018;4.282;2023-12-29T02:30:27;10.38;;;1.88;;
18905;SDS011;9585;51.018;4.282;2023-12-29T02:33:00;6.28;;;1.90;;
18905;SDS011;9585;51.018;4.282;2023-12-29T02:35:32;9.02;;;2.10;;
18905;SDS011;9585;51.018;4.282;2023-12-29T02:38:05;5.90;;;1.40;;
18905;SDS011;9585;51.018;4.282;2023-12-29T02:40:34;6.15;;;1.73;;
18905;SDS011;9585;51.018;4.282;2023-12-29T02:43:03;9.15;;;1.80;;
18905;SDS011;9585;51.018;4.282;2023-12-29T02:45:30;6.97;;;1.75;;
18905;SDS011;9585;51.018;4.282;2023-12-29T02:47:58;7.32;;;1.83;;
18905;SDS011;9585;51.018;4.282;2023-12-29T02:50:26;9.25;;;2.00;;
18905;SDS011;9585;51.018;4.282;2023-12-29T02:52:54;10.77;;;1.80;;
18905;SDS011;9585;51.018;4.282;2023-12-29T02:55:22;6.55;;;1.52;;
18905;SDS011;9585;51.018;4.282;2023-12-29T02:57:51;7.18;;;2.05;;
18905;SDS011;9585;51.018;4.282;2023-12-29T03:00:19;6.68;;;1.65;;
18905;SDS011;9585;51.018;4.282;2023-12-29T03:02:47;7.50;;;1.80;;
18905;SDS011;9585;51.018;4.282;2023-12-29T03:05:15;8.25;;;1.70;;
18905;SDS011;9585;51.018;4.282;2023-12-29T03:07:43;9.60;;;2.03;;
18905;SDS011;9585;51.018;4.282;2023-12-29T03:10:10;8.35;;;1.70;;
18905;SDS011;9585;51.018;4.282;2023-12-29T03:12:38;6.40;;;1.58;;
18905;SDS011;9585;51.018;4.282;2023-12-29T03:15:08;4.07;;;1.60;;
18905;SDS011;9585;51.018;4.282;2023-12-29T03:17:36;7.45;;;1.77;;
18905;SDS011;9585;51.018;4.282;2023-12-29T03:20:04;10.73;;;2.17;;
18905;SDS011;9585;51.018;4.282;2023-12-29T03:22:33;8.00;;;1.63;;
18905;SDS011;9585;51.018;4.282;2023-12-29T03:25:01;8.93;;;2.22;;
18905;SDS011;9585;51.018;4.282;2023-12-29T03:27:29;7.15;;;1.60;;
18905;SDS011;9585;51.018;4.282;2023-12-29T03:29:56;8.27;;;1.63;;
18905;SDS011;9585;51.018;4.282;2023-12-29T03:32:26;9.05;;;2.17;;
18905;SDS011;9585;51.018;4.282;2023-12-29T03:34:54;11.70;;;1.77;;
18905;SDS011;9585;51.018;4.282;2023-12-29T03:37:22;7.43;;;2.10;;
18905;SDS011;9585;51.018;4.282;2023-12-29T03:39:50;9.25;;;2.30;;
18905;SDS011;9585;51.018;4.282;2023-12-29T03:42:17;8.63;;;1.83;;
18905;SDS011;9585;51.018;4.282;2023-12-29T03:44:45;4.88;;;1.48;;
18905;SDS011;9585;51.018;4.282;2023-12-29T03:47:13;8.55;;;2.13;;
18905;SDS011;9585;51.018;4.282;2023-12-29T03:49:42;8.15;;;1.80;;
18905;SDS011;9585;51.018;4.282;2023-12-29T03:52:10;10.60;;;2.00;;
18905;SDS011;9585;51.018;4.282;2023-12-29T03:54:38;9.25;;;1.60;;
18905;SDS011;9585;51.018;4.282;2023-12-29T03:57:06;9.57;;;1.98;;
18905;SDS011;9585;51.018;4.282;2023-12-29T03:59:35;7.68;;;1.42;;
18905;SDS011;9585;51.018;4.282;2023-12-29T04:02:04;7.50;;;1.70;;
18905;SDS011;9585;51.018;4.282;2023-12-29T04:04:31;8.95;;;2.08;;
18905;SDS011;9585;51.018;4.282;2023-12-29T04:07:04;7.03;;;1.52;;
18905;SDS011;9585;51.018;4.282;2023-12-29T04:09:32;9.48;;;1.55;;
18905;SDS011;9585;51.018;4.282;2023-12-29T04:12:00;6.10;;;1.63;;
18905;SDS011;9585;51.018;4.282;2023-12-29T04:14:28;7.32;;;1.90;;
18905;SDS011;9585;51.018;4.282;2023-12-29T04:16:55;7.07;;;1.60;;
18905;SDS011;9585;51.018;4.282;2023-12-29T04:19:24;11.73;;;2.00;;
18905;SDS011;9585;51.018;4.282;2023-12-29T04:21:52;9.60;;;1.80;;
18905;SDS011;9585;51.018;4.282;2023-12-29T04:24:21;6.18;;;1.50;;
18905;SDS011;9585;51.018;4.282;2023-12-29T04:26:49;12.20;;;1.83;;
18905;SDS011;9585;51.018;4.282;2023-12-29T04:29:17;6.85;;;1.73;;
18905;SDS011;9585;51.018;4.282;2023-12-29T04:31:44;8.15;;;1.38;;
18905;SDS011;9585;51.018;4.282;2023-12-29T04:34:12;5.32;;;1.38;;
18905;SDS011;9585;51.018;4.282;2023-12-29T04:36:40;8.40;;;1.63;;
18905;SDS011;9585;51.018;4.282;2023-12-29T04:39:08;7.00;;;1.80;;
18905;SDS011;9585;51.018;4.282;2023-12-29T04:41:37;7.53;;;1.60;;
18905;SDS011;9585;51.018;4.282;2023-12-29T04:44:05;8.05;;;1.50;;
18905;SDS011;9585;51.018;4.282;2023-12-29T04:46:33;7.32;;;1.75;;
18905;SDS011;9585;51.018;4.282;2023-12-29T04:49:01;8.75;;;1.83;;
18905;SDS011;9585;51.018;4.282;2023-12-29T04:51:29;8.68;;;2.00;;
18905;SDS011;9585;51.018;4.282;2023-12-29T04:53:57;6.88;;;1.67;;
18905;SDS011;9585;51.018;4.282;2023-12-29T04:56:25;8.98;;;1.90;;
18905;SDS011;9585;51.018;4.282;2023-12-29T04:58:54;6.43;;;1.42;;
18905;SDS011;9585;51.018;4.282;2023-12-29T05:01:23;6.75;;;1.40;;
18905;SDS011;9585;51.018;4.282;2023-12-29T05:03:51;7.22;;;1.63;;
18905;SDS011;9585;51.018;4.282;2023-12-29T05:06:19;8.02;;;1.83;;
18905;SDS011;9585;51.018;4.282;2023-12-29T05:08:46;6.00;;;1.90;;
18905;SDS011;9585;51.018;4.282;2023-12-29T05:11:14;5.10;;;1.67;;
18905;SDS011;9585;51.018;4.282;2023-12-29T05:13:42;6.05;;;1.63;;
18905;SDS011;9585;51.018;4.282;2023-12-29T05:16:11;7.32;;;1.60;;
18905;SDS011;9585;51.018;4.282;2023-12-29T05:18:40;5.55;;;1.52;;
18905;SDS011;9585;51.018;4.282;2023-12-29T05:21:14;7.05;;;1.83;;
18905;SDS011;9585;51.018;4.282;2023-12-29T05:23:43;11.35;;;1.88;;
18905;SDS011;9585;51.018;4.282;2023-12-29T05:26:12;7.40;;;1.60;;
18905;SDS011;9585;51.018;4.282;2023-12-29T05:28:40;6.75;;;1.80;;
18905;SDS011;9585;51.018;4.282;2023-12-29T05:31:08;6.20;;;1.63;;
18905;SDS011;9585;51.018;4.282;2023-12-29T05:33:38;6.53;;;1.67;;
18905;SDS011;9585;51.018;4.282;2023-12-29T05:36:06;5.78;;;1.85;;
18905;SDS011;9585;51.018;4.282;2023-12-29T05:38:35;6.28;;;1.77;;
18905;SDS011;9585;51.018;4.282;2023-12-29T05:41:03;7.95;;;1.55;;
18905;SDS011;9585;51.018;4.282;2023-12-29T05:43:31;8.00;;;1.83;;
18905;SDS011;9585;51.018;4.282;2023-12-29T05:46:00;8.27;;;2.13;;
18905;SDS011;9585;51.018;4.282;2023-12-29T05:48:29;6.07;;;1.50;;
18905;SDS011;9585;51.018;4.282;2023-12-29T05:50:57;5.35;;;1.48;;
18905;SDS011;9585;51.018;4.282;2023-12-29T05:53:24;7.40;;;1.70;;
18905;SDS011;9585;51.018;4.282;2023-12-29T05:55:52;7.03;;;1.60;;
18905;SDS011;9585;51.018;4.282;2023-12-29T05:58:20;7.72;;;1.67;;
18905;SDS011;9585;51.018;4.282;2023-12-29T06:00:48;9.68;;;1.63;;
18905;SDS011;9585;51.018;4.282;2023-12-29T06:03:16;9.18;;;2.10;;
18905;SDS011;9585;51.018;4.282;2023-12-29T06:05:46;5.88;;;1.98;;
18905;SDS011;9585;51.018;4.282;2023-12-29T06:08:14;6.22;;;1.70;;
18905;SDS011;9585;51.018;4.282;2023-12-29T06:10:42;6.20;;;1.60;;
18905;SDS011;9585;51.018;4.282;2023-12-29T06:13:10;4.53;;;1.40;;
18905;SDS011;9585;51.018;4.282;2023-12-29T06:15:38;7.97;;;2.10;;
18905;SDS011;9585;51.018;4.282;2023-12-29T06:18:05;7.15;;;1.80;;
18905;SDS011;9585;51.018;4.282;2023-12-29T06:20:33;9.02;;;1.70;;
18905;SDS011;9585;51.018;4.282;2023-12-29T06:23:02;6.18;;;1.70;;
18905;SDS011;9585;51.018;4.282;2023-12-29T06:25:30;7.85;;;1.70;;
18905;SDS011;9585;51.018;4.282;2023-12-29T06:27:59;8.40;;;1.90;;
18905;SDS011;9585;51.018;4.282;2023-12-29T06:30:29;7.88;;;2.05;;
18905;SDS011;9585;51.018;4.282;2023-12-29T06:32:57;6.68;;;1.50;;
18905;SDS011;9585;51.018;4.282;2023-12-29T06:35:24;9.02;;;1.98;;
18905;SDS011;9585;51.018;4.282;2023-12-29T06:37:52;5.30;;;1.30;;
18905;SDS011;9585;51.018;4.282;2023-12-29T06:40:22;7.47;;;1.85;;
18905;SDS011;9585;51.018;4.282;2023-12-29T06:42:50;9.05;;;1.80;;
18905;SDS011;9585;51.018;4.282;2023-12-29T06:45:18;5.13;;;1.27;;
18905;SDS011;9585;51.018;4.282;2023-12-29T06:47:46;3.22;;;1.40;;
18905;SDS011;9585;51.018;4.282;2023-12-29T06:50:14;7.97;;;1.52;;
18905;SDS011;9585;51.018;4.282;2023-12-29T06:52:41;6.38;;;1.42;;
18905;SDS011;9585;51.018;4.282;2023-12-29T06:55:09;4.90;;;1.35;;
18905;SDS011;9585;51.018;4.282;2023-12-29T06:57:38;7.22;;;1.75;;
18905;SDS011;9585;51.018;4.282;2023-12-29T07:00:07;6.38;;;1.30;;
18905;SDS011;9585;51.018;4.282;2023-12-29T07:02:37;5.55;;;1.45;;
18905;SDS011;9585;51.018;4.282;2023-12-29T07:05:06;6.80;;;1.45;;
18905;SDS011;9585;51.018;4.282;2023-12-29T07:07:34;6.80;;;1.40;;
18905;SDS011;9585;51.018;4.282;2023-12-29T07:10:03;3.33;;;1.23;;
18905;SDS011;9585;51.018;4.282;2023-12-29T07:12:31;6.32;;;1.70;;
18905;SDS011;9585;51.018;4.282;2023-12-29T07:15:01;5.25;;;1.65;;
18905;SDS011;9585;51.018;4.282;2023-12-29T07:17:28;3.83;;;1.20;;
18905;SDS011;9585;51.018;4.282;2023-12-29T07:19:56;4.53;;;1.40;;
18905;SDS011;9585;51.018;4.282;2023-12-29T07:22:24;6.97;;;1.25;;
18905;SDS011;9585;51.018;4.282;2023-12-29T07:24:52;4.25;;;1.30;;
18905;SDS011;9585;51.018;4.282;2023-12-29T07:27:21;5.03;;;1.45;;
18905;SDS011;9585;51.018;4.282;2023-12-29T07:29:49;7.28;;;1.63;;
18905;SDS011;9585;51.018;4.282;2023-12-29T07:32:18;4.00;;;1.10;;
18905;SDS011;9585;51.018;4.282;2023-12-29T07:34:49;4.43;;;1.50;;
18905;SDS011;9585;51.018;4.282;2023-12-29T07:37:17;4.18;;;1.35;;
18905;SDS011;9585;51.018;4.282;2023-12-29T07:39:45;7.88;;;1.33;;
18905;SDS011;9585;51.018;4.282;2023-12-29T07:42:13;5.68;;;1.20;;
18905;SDS011;9585;51.018;4.282;2023-12-29T07:44:42;5.57;;;1.20;;
18905;SDS011;9585;51.018;4.282;2023-12-29T07:47:10;4.30;;;1.23;;
18905;SDS011;9585;51.018;4.282;2023-12-29T07:49:40;4.13;;;1.05;;
18905;SDS011;9585;51.018;4.282;2023-12-29T07:52:09;3.10;;;1.23;;
18905;SDS011;9585;51.018;4.282;2023-12-29T07:54:37;3.72;;;1.23;;
18905;SDS011;9585;51.018;4.282;2023-12-29T07:57:04;4.70;;;0.80;;
18905;SDS011;9585;51.018;4.282;2023-12-29T07:59:32;2.50;;;0.80;;
18905;SDS011;9585;51.018;4.282;2023-12-29T08:02:00;3.58;;;0.93;;
18905;SDS011;9585;51.018;4.282;2023-12-29T08:04:28;2.10;;;0.93;;
18905;SDS011;9585;51.018;4.282;2023-12-29T08:06:58;2.40;;;0.98;;
18905;SDS011;9585;51.018;4.282;2023-12-29T08:09:25;3.30;;;1.10;;
18905;SDS011;9585;51.018;4.282;2023-12-29T08:11:53;2.97;;;0.90;;
18905;SDS011;9585;51.018;4.282;2023-12-29T08:14:21;2.78;;;1.20;;
18905;SDS011;9585;51.018;4.282;2023-12-29T08:16:49;3.13;;;0.90;;
18905;SDS011;9585;51.018;4.282;2023-12-29T08:19:17;1.77;;;1.00;;
18905;SDS011;9585;51.018;4.282;2023-12-29T08:21:45;3.58;;;1.23;;
18905;SDS011;9585;51.018;4.282;2023-12-29T08:24:15;3.65;;;1.13;;
18905;SDS011;9585;51.018;4.282;2023-12-29T08:26:45;3.55;;;1.30;;
18905;SDS011;9585;51.018;4.282;2023-12-29T08:29:14;5.28;;;1.42;;
18905;SDS011;9585;51.018;4.282;2023-12-29T08:31:44;3.42;;;1.20;;
18905;SDS011;9585;51.018;4.282;2023-12-29T08:34:12;4.28;;;1.63;;
18905;SDS011;9585;51.018;4.282;2023-12-29T08:36:42;5.35;;;1.70;;
18905;SDS011;9585;51.018;4.282;2023-12-29T08:39:10;4.55;;;1.90;;
18905;SDS011;9585;51.018;4.282;2023-12-29T08:41:39;4.10;;;1.55;;
18905;SDS011;9585;51.018;4.282;2023-12-29T08:44:08;4.20;;;1.08;;
18905;SDS011;9585;51.018;4.282;2023-12-29T08:46:36;1.85;;;0.90;;
18905;SDS011;9585;51.018;4.282;2023-12-29T08:49:04;2.65;;;0.90;;
18905;SDS011;9585;51.018;4.282;2023-12-29T08:51:32;1.77;;;0.60;;
18905;SDS011;9585;51.018;4.282;2023-12-29T08:54:00;0.47;;;0.43;;
18905;SDS011;9585;51.018;4.282;2023-12-29T08:56:28;0.85;;;0.50;;
18905;SDS011;9585;51.018;4.282;2023-12-29T08:58:58;1.40;;;0.50;;
18905;SDS011;9585;51.018;4.282;2023-12-29T09:01:26;1.67;;;1.08;;
18905;SDS011;9585;51.018;4.282;2023-12-29T09:03:52;3.03;;;1.25;;
18905;SDS011;9585;51.018;4.282;2023-12-29T09:06:20;4.20;;;1.50;;
18905;SDS011;9585;51.018;4.282;2023-12-29T09:08:48;2.50;;;1.60;;
18905;SDS011;9585;51.018;4.282;2023-12-29T09:11:16;8.15;;;1.85;;
18905;SDS011;9585;51.018;4.282;2023-12-29T09:13:44;4.57;;;1.70;;
18905;SDS011;9585;51.018;4.282;2023-12-29T09:16:13;6.30;;;1.58;;
18905;SDS011;9585;51.018;4.282;2023-12-29T09:18:41;3.55;;;1.25;;
18905;SDS011;9585;51.018;4.282;2023-12-29T09:21:08;3.75;;;1.20;;
18905;SDS011;9585;51.018;4.282;2023-12-29T09:23:37;6.22;;;1.45;;
18905;SDS011;9585;51.018;4.282;2023-12-29T09:26:05;3.83;;;1.40;;
18905;SDS011;9585;51.018;4.282;2023-12-29T09:28:33;5.22;;;1.38;;
18905;SDS011;9585;51.018;4.282;2023-12-29T09:31:01;4.90;;;1.00;;
18905;SDS011;9585;51.018;4.282;2023-12-29T09:33:30;5.13;;;1.20;;
18905;SDS011;9585;51.018;4.282;2023-12-29T09:35:58;2.90;;;1.13;;
18905;SDS011;9585;51.018;4.282;2023-12-29T09:38:26;2.92;;;1.02;;
18905;SDS011;9585;51.018;4.282;2023-12-29T09:40:56;4.68;;;1.13;;
18905;SDS011;9585;51.018;4.282;2023-12-29T09:43:29;4.18;;;1.25;;
18905;SDS011;9585;51.018;4.282;2023-12-29T09:45:58;5.07;;;1.08;;
18905;SDS011;9585;51.018;4.282;2023-12-29T09:48:27;3.75;;;1.05;;
18905;SDS011;9585;51.018;4.282;2023-12-29T09:50:57;2.30;;;1.02;;
18905;SDS011;9585;51.018;4.282;2023-12-29T09:53:26;2.47;;;0.70;;
18905;SDS011;9585;51.018;4.282;2023-12-29T09:55:54;3.15;;;0.80;;
18905;SDS011;9585;51.018;4.282;2023-12-29T09:58:25;1.55;;;0.65;;
18905;SDS011;9585;51.018;4.282;2023-12-29T10:00:53;1.50;;;0.60;;
18905;SDS011;9585;51.018;4.282;2023-12-29T10:03:21;1.38;;;0.50;;
18905;SDS011;9585;51.018;4.282;2023-12-29T10:05:50;0.88;;;0.40;;
18905;SDS011;9585;51.018;4.282;2023-12-29T10:08:23;2.67;;;0.50;;
18905;SDS011;9585;51.018;4.282;2023-12-29T10:10:52;0.50;;;0.40;;
18905;SDS011;9585;51.018;4.282;2023-12-29T10:13:25;0.77;;;0.40;;
18905;SDS011;9585;51.018;4.282;2023-12-29T10:15:56;0.52;;;0.30;;
18905;SDS011;9585;51.018;4.282;2023-12-29T10:18:30;1.33;;;0.65;;
18905;SDS011;9585;51.018;4.282;2023-12-29T10:21:06;0.88;;;0.45;;
18905;SDS011;9585;51.018;4.282;2023-12-29T10:23:47;1.73;;;0.55;;
18905;SDS011;9585;51.018;4.282;2023-12-29T10:26:21;1.35;;;0.80;;
18905;SDS011;9585;51.018;4.282;2023-12-29T10:28:50;4.40;;;0.80;;
18905;SDS011;9585;51.018;4.282;2023-12-29T10:31:19;3.25;;;1.00;;
18905;SDS011;9585;51.018;4.282;2023-12-29T10:33:47;1.65;;;0.90;;
18905;SDS011;9585;51.018;4.282;2023-12-29T10:36:16;3.85;;;1.55;;
18905;SDS011;9585;51.018;4.282;2023-12-29T10:38:46;6.72;;;1.60;;
18905;SDS011;9585;51.018;4.282;2023-12-29T10:41:15;4.07;;;1.83;;
18905;SDS011;9585;51.018;4.282;2023-12-29T10:43:45;3.75;;;1.75;;
18905;SDS011;9585;51.018;4.282;2023-12-29T10:46:17;3.72;;;1.70;;
18905;SDS011;9585;51.018;4.282;2023-12-29T10:48:46;5.10;;;2.03;;
18905;SDS011;9585;51.018;4.282;2023-12-29T10:51:14;7.95;;;1.88;;
18905;SDS011;9585;51.018;4.282;2023-12-29T10:53:41;6.38;;;2.03;;
18905;SDS011;9585;51.018;4.282;2023-12-29T10:56:26;4.55;;;1.65;;
18905;SDS011;9585;51.018;4.282;2023-12-29T10:58:57;9.60;;;1.88;;
18905;SDS011;9585;51.018;4.282;2023-12-29T11:01:28;4.78;;;1.65;;
18905;SDS011;9585;51.018;4.282;2023-12-29T11:03:59;8.73;;;1.80;;
18905;SDS011;9585;51.018;4.282;2023-12-29T11:06:28;6.55;;;2.17;;
18905;SDS011;9585;51.018;4.282;2023-12-29T11:09:08;6.28;;;1.80;;
18905;SDS011;9585;51.018;4.282;2023-12-29T11:11:37;5.45;;;1.38;;
18905;SDS011;9585;51.018;4.282;2023-12-29T11:14:06;6.80;;;1.65;;
18905;SDS011;9585;51.018;4.282;2023-12-29T11:16:38;6.05;;;1.80;;
18905;SDS011;9585;51.018;4.282;2023-12-29T11:19:08;4.68;;;1.38;;
18905;SDS011;9585;51.018;4.282;2023-12-29T11:21:38;4.80;;;1.92;;
18905;SDS011;9585;51.018;4.282;2023-12-29T11:24:09;3.55;;;1.50;;
18905;SDS011;9585;51.018;4.282;2023-12-29T11:26:37;6.30;;;1.83;;
18905;SDS011;9585;51.018;4.282;2023-12-29T11:29:05;7.95;;;1.95;;
18905;SDS011;9585;51.018;4.282;2023-12-29T11:31:34;3.80;;;1.60;;
18905;SDS011;9585;51.018;4.282;2023-12-29T11:34:03;5.15;;;2.33;;
18905;SDS011;9585;51.018;4.282;2023-12-29T11:36:38;6.40;;;2.10;;
18905;SDS011;9585;51.018;4.282;2023-12-29T11:39:15;6.03;;;1.80;;
18905;SDS011;9585;51.018;4.282;2023-12-29T11:41:54;5.78;;;1.75;;
18905;SDS011;9585;51.018;4.282;2023-12-29T11:44:29;4.18;;;1.58;;
18905;SDS011;9585;51.018;4.282;2023-12-29T11:46:58;7.95;;;1.83;;
18905;SDS011;9585;51.018;4.282;2023-12-29T11:49:26;4.93;;;1.30;;
18905;SDS011;9585;51.018;4.282;2023-12-29T11:52:07;6.40;;;1.60;;
18905;SDS011;9585;51.018;4.282;2023-12-29T11:54:36;5.00;;;1.30;;
18905;SDS011;9585;51.018;4.282;2023-12-29T11:57:04;5.72;;;1.58;;
18905;SDS011;9585;51.018;4.282;2023-12-29T11:59:35;3.90;;;1.48;;
18905;SDS011;9585;51.018;4.282;2023-12-29T12:02:25;4.65;;;1.50;;
18905;SDS011;9585;51.018;4.282;2023-12-29T12:04:54;5.60;;;1.63;;
18905;SDS011;9585;51.018;4.282;2023-12-29T12:10:31;5.63;;;1.40;;
18905;SDS011;9585;51.018;4.282;2023-12-29T12:13:03;6.35;;;1.70;;
18905;SDS011;9585;51.018;4.282;2023-12-29T12:15:32;4.30;;;1.38;;
18905;SDS011;9585;51.018;4.282;2023-12-29T12:18:00;3.40;;;1.30;;
18905;SDS011;9585;51.018;4.282;2023-12-29T12:20:31;4.05;;;1.35;;
18905;SDS011;9585;51.018;4.282;2023-12-29T12:23:00;3.08;;;1.15;;
18905;SDS011;9585;51.018;4.282;2023-12-29T12:25:29;2.28;;;1.20;;
18905;SDS011;9585;51.018;4.282;2023-12-29T12:28:05;2.53;;;1.52;;
18905;SDS011;9585;51.018;4.282;2023-12-29T12:30:33;3.97;;;1.35;;
18905;SDS011;9585;51.018;4.282;2023-12-29T12:33:01;2.50;;;1.15;;
18905;SDS011;9585;51.018;4.282;2023-12-29T12:35:30;4.57;;;1.20;;
18905;SDS011;9585;51.018;4.282;2023-12-29T12:38:08;2.78;;;1.00;;
18905;SDS011;9585;51.018;4.282;2023-12-29T12:40:38;3.33;;;1.02;;
18905;SDS011;9585;51.018;4.282;2023-12-29T12:43:06;2.97;;;1.05;;
18905;SDS011;9585;51.018;4.282;2023-12-29T12:45:34;1.10;;;1.00;;
18905;SDS011;9585;51.018;4.282;2023-12-29T12:48:14;3.83;;;1.17;;
18905;SDS011;9585;51.018;4.282;2023-12-29T12:50:48;2.53;;;1.00;;
18905;SDS011;9585;51.018;4.282;2023-12-29T12:53:16;2.50;;;0.90;;
18905;SDS011;9585;51.018;4.282;2023-12-29T12:55:49;2.72;;;1.00;;
18905;SDS011;9585;51.018;4.282;2023-12-29T12:58:18;2.50;;;0.85;;
18905;SDS011;9585;51.018;4.282;2023-12-29T13:00:47;2.92;;;0.70;;
18905;SDS011;9585;51.018;4.282;2023-12-29T13:03:15;3.22;;;1.00;;
18905;SDS011;9585;51.018;4.282;2023-12-29T13:05:43;2.60;;;0.80;;
18905;SDS011;9585;51.018;4.282;2023-12-29T13:08:12;1.90;;;0.77;;
18905;SDS011;9585;51.018;4.282;2023-12-29T13:10:40;1.60;;;0.80;;
18905;SDS011;9585;51.018;4.282;2023-12-29T13:13:11;1.00;;;0.57;;
18905;SDS011;9585;51.018;4.282;2023-12-29T13:15:45;1.95;;;0.75;;
18905;SDS011;9585;51.018;4.282;2023-12-29T13:18:14;1.48;;;0.80;;
18905;SDS011;9585;51.018;4.282;2023-12-29T13:20:44;2.83;;;0.65;;
18905;SDS011;9585;51.018;4.282;2023-12-29T13:23:14;1.90;;;0.90;;
18905;SDS011;9585;51.018;4.282;2023-12-29T13:25:43;3.25;;;0.93;;
18905;SDS011;9585;51.018;4.282;2023-12-29T13:28:17;2.20;;;0.90;;
18905;SDS011;9585;51.018;4.282;2023-12-29T13:30:45;3.58;;;1.20;;
18905;SDS011;9585;51.018;4.282;2023-12-29T13:33:15;1.50;;;1.20;;
18905;SDS011;9585;51.018;4.282;2023-12-29T13:35:53;2.00;;;1.25;;
18905;SDS011;9585;51.018;4.282;2023-12-29T13:38:25;5.28;;;1.73;;
18905;SDS011;9585;51.018;4.282;2023-12-29T13:40:56;2.00;;;1.23;;
18905;SDS011;9585;51.018;4.282;2023-12-29T13:43:29;3.63;;;1.33;;
18905;SDS011;9585;51.018;4.282;2023-12-29T13:45:59;2.85;;;1.33;;
18905;SDS011;9585;51.018;4.282;2023-12-29T13:48:29;3.45;;;1.17;;
18905;SDS011;9585;51.018;4.282;2023-12-29T13:50:59;3.60;;;1.38;;
18905;SDS011;9585;51.018;4.282;2023-12-29T13:53:26;4.20;;;1.30;;
18905;SDS011;9585;51.018;4.282;2023-12-29T13:56:04;2.17;;;1.25;;
18905;SDS011;9585;51.018;4.282;2023-12-29T13:58:35;3.42;;;1.35;;
18905;SDS011;9585;51.018;4.282;2023-12-29T14:01:04;3.05;;;1.17;;
18905;SDS011;9585;51.018;4.282;2023-12-29T14:03:37;2.30;;;0.95;;
18905;SDS011;9585;51.018;4.282;2023-12-29T14:06:19;3.22;;;1.10;;
18905;SDS011;9585;51.018;4.282;2023-12-29T14:08:49;1.10;;;0.65;;
18905;SDS011;9585;51.018;4.282;2023-12-29T14:11:17;1.88;;;0.80;;
18905;SDS011;9585;51.018;4.282;2023-12-29T14:13:46;1.83;;;0.70;;
18905;SDS011;9585;51.018;4.282;2023-12-29T14:16:14;1.48;;;1.05;;
18905;SDS011;9585;51.018;4.282;2023-12-29T14:21:31;2.25;;;1.13;;
18905;SDS011;9585;51.018;4.282;2023-12-29T14:24:00;3.60;;;1.20;;
18905;SDS011;9585;51.018;4.282;2023-12-29T14:26:32;2.38;;;1.20;;
18905;SDS011;9585;51.018;4.282;2023-12-29T14:29:15;2.97;;;1.30;;
18905;SDS011;9585;51.018;4.282;2023-12-29T14:31:43;3.83;;;1.30;;
18905;SDS011;9585;51.018;4.282;2023-12-29T14:34:12;3.85;;;1.50;;
18905;SDS011;9585;51.018;4.282;2023-12-29T14:36:41;3.03;;;1.50;;
18905;SDS011;9585;51.018;4.282;2023-12-29T14:39:11;4.45;;;1.30;;
18905;SDS011;9585;51.018;4.282;2023-12-29T14:41:40;3.83;;;1.70;;
18905;SDS011;9585;51.018;4.282;2023-12-29T14:44:10;3.20;;;1.45;;
18905;SDS011;9585;51.018;4.282;2023-12-29T14:46:38;2.95;;;1.83;;
18905;SDS011;9585;51.018;4.282;2023-12-29T14:49:06;6.22;;;1.50;;
18905;SDS011;9585;51.018;4.282;2023-12-29T14:51:34;3.00;;;1.83;;
18905;SDS011;9585;51.018;4.282;2023-12-29T14:54:04;3.40;;;1.90;;
18905;SDS011;9585;51.018;4.282;2023-12-29T14:56:32;6.25;;;1.38;;
18905;SDS011;9585;51.018;4.282;2023-12-29T14:59:03;4.32;;;1.65;;
18905;SDS011;9585;51.018;4.282;2023-12-29T15:01:32;4.60;;;1.38;;
18905;SDS011;9585;51.018;4.282;2023-12-29T15:04:00;5.15;;;1.42;;
18905;SDS011;9585;51.018;4.282;2023-12-29T15:06:28;4.05;;;1.58;;
18905;SDS011;9585;51.018;4.282;2023-12-29T15:08:56;5.88;;;1.25;;
18905;SDS011;9585;51.018;4.282;2023-12-29T15:11:24;5.03;;;1.48;;
18905;SDS011;9585;51.018;4.282;2023-12-29T15:13:54;4.57;;;1.23;;
18905;SDS011;9585;51.018;4.282;2023-12-29T15:16:22;3.00;;;1.08;;
18905;SDS011;9585;51.018;4.282;2023-12-29T15:18:51;3.72;;;1.15;;